Details From YBRM - Broome Intl
To YPPD - Port Hedland Intl
Flight Number -
Tags Generated
Created
Modified
Stats Distance 251 nm / 465 km
Max Altitude 0 ft / 0 m
Waypoints 3
Social Downloads 4
Likes 0
Share VATSIM

Download

Looking for another format? Having issues loading an existing format? Contact us
Advertisement - Login to hide

Notes

Generated

Route

YBRM PPDNM YPPD

ID Type Via Altitude Latitude Longitude Leg Dist Tot Dist Heading (true) Name
O YBRM APT - 0 ft / 0 m -17.94581˚ 122.21626˚ - 0 nm - -
PPDNM FIX - 0 ft / 0 m -20.37076˚ 118.61836˚ 250 nm 250 nm 234° / 235° -
O YPPD APT - 0 ft / 0 m -20.37029˚ 118.62929˚ 0 nm 251 nm 87° / 87° -

Altitude Profile

Advertisement - Login to hide

Weather


0- 5 10 15 20 25 30 35+ Temperature / ° C

Clouds and Precipitation
Forecast for 2018-06-24 06:00 UTC. Updated 5 hours ago

Ground ~20,000 ft ~40,000 ft Winds

YBRM

Details ICAO YBRM
Name Broome Intl
Region Australia
Timezone Australia/Perth (UTC+8.0)
Stats Elevation 56 ft / 17 m (AMSL)
Location -17.948745° 122.227225°
Runways 1
Magnetic Variation 1.760° E

METAR

YBRM 240830Z AUTO 12009KT 9999 // NCD 25/06 Q1016 RF00.0/000.0

Decode

TAF

TAF YBRM 240503Z 2406/2506 12014KT CAVOK FM250000 11017G27KT CAVOK FM250400 12014KT CAVOK

Decode

Departure Runways

ID Width Length Bearing (true) Bearing (mag) Surface Threshold Offset Overrun Length
10 148 ft / 45 m 8,325 ft / 2,537 m 105.60° 103.84° Asphalt 292 ft / 89 m 52 ft / 16 m
28 148 ft / 45 m 8,325 ft / 2,537 m 285.60° 283.84° Asphalt 666 ft / 203 m 0 ft / 0 m

YPPD

Details ICAO YPPD (PHE)
Name Port Hedland Intl
Region Australia
Timezone Australia/Perth (UTC+8.0)
Stats Elevation 33 ft / 10 m (AMSL)
Location -20.378551° 118.629429°
Runways 2
Magnetic Variation 1.240° E

METAR

YPPD 240830Z AUTO 13012KT 9999 // NCD 25/M04 Q1018

Decode

TAF

TAF YPPD 240503Z 2406/2506 11014KT CAVOK FM250000 11020G30KT CAVOK FM250400 11014KT CAVOK

Decode

Destination Runways

ID Width Length Bearing (true) Bearing (mag) Surface Threshold Offset Overrun Length
14 148 ft / 45 m 8,216 ft / 2,504 m 137.60° 136.36° Asphalt 0 ft / 0 m 0 ft / 0 m
18 59 ft / 18 m 3,292 ft / 1,003 m 2.40° 1.16° Asphalt 0 ft / 0 m 0 ft / 0 m
32 148 ft / 45 m 8,216 ft / 2,504 m 317.60° 316.36° Asphalt 0 ft / 0 m 0 ft / 0 m
36 59 ft / 18 m 3,292 ft / 1,003 m 182.40° 181.16° Asphalt 0 ft / 0 m 0 ft / 0 m

Popular Alternatives